Time;durP1;ratioP1;P1;durP2;ratioP2;P2;SDS_P1;SDS_P2;PMS_P1;PMS_P2;Temp;Humidity;BMP_temperature;BMP_pressure;BME280_temperature;BME280_humidity;BME280_pressure;Samples;Min_cycle;Max_cycle;Signal;HPM_P1;HPM_P2
2022/09/06 00:00:09;;;;;;;9.25;6.75;;;;;;;16.45;81.34;101214.47;4998094;28;20064;-78
2022/09/06 00:02:35;;;;;;;8.77;6.82;;;;;;;16.26;81.99;101189.09;5000300;28;20087;-79
2022/09/06 00:05:01;;;;;;;9.85;6.88;;;;;;;17.17;81.96;101331.19;4995798;28;20029;-77
2022/09/06 00:07:27;;;;;;;13.90;6.93;;;;;;;16.89;82.35;101331.50;5007609;28;20540;-75
2022/09/06 00:09:53;;;;;;;8.95;6.35;;;;;;;16.88;82.59;101325.31;5027065;28;20489;-75
2022/09/06 00:12:19;;;;;;;15.18;6.85;;;;;;;16.58;82.62;101262.03;5027132;28;20045;-74
2022/09/06 00:14:45;;;;;;;9.27;6.70;;;;;;;16.21;82.79;101220.03;5016785;28;20084;-79
2022/09/06 00:17:11;;;;;;;10.32;5.72;;;;;;;16.84;82.59;101323.59;4999205;28;20030;-76
2022/09/06 00:19:36;;;;;;;12.50;7.63;;;;;;;15.87;83.43;101154.19;5018093;28;20059;-80
2022/09/06 00:22:02;;;;;;;11.40;6.47;;;;;;;16.07;82.28;101183.09;5019934;28;20049;-75
2022/09/06 00:24:27;;;;;;;11.93;7.40;;;;;;;16.63;82.57;101265.50;5016198;28;20146;-74
2022/09/06 00:26:53;;;;;;;9.13;5.60;;;;;;;17.05;81.75;101335.72;5026370;28;21450;-79
2022/09/06 00:29:18;;;;;;;16.55;6.22;;;;;;;16.86;81.99;101337.72;5045723;28;20067;-76
2022/09/06 00:31:44;;;;;;;9.00;5.72;;;;;;;15.97;82.25;101168.22;5026314;28;20029;-73
2022/09/06 00:34:09;;;;;;;11.93;7.07;;;;;;;16.85;82.41;101290.88;5020973;28;20051;-73
2022/09/06 00:36:35;;;;;;;10.48;7.13;;;;;;;16.99;81.11;101317.22;5024349;28;20096;-76
2022/09/06 00:39:00;;;;;;;11.65;6.93;;;;;;;16.82;82.26;101324.50;5031939;28;20960;-75
2022/09/06 00:41:26;;;;;;;8.85;6.22;;;;;;;16.87;81.96;101328.84;5019140;28;20048;-78
2022/09/06 00:43:52;;;;;;;8.27;6.78;;;;;;;16.13;83.08;101211.28;5023038;28;20021;-78
2022/09/06 00:46:21;;;;;;;9.10;6.80;;;;;;;16.72;83.61;101299.00;5013642;28;20504;-78
2022/09/06 00:48:52;;;;;;;13.73;6.93;;;;;;;16.60;83.40;101300.88;5016104;28;20508;-74
2022/09/06 00:51:21;;;;;;;10.45;6.43;;;;;;;15.74;84.07;101171.94;5015676;28;20068;-77
2022/09/06 00:53:47;;;;;;;10.35;7.35;;;;;;;15.56;84.34;101150.91;5019485;28;20057;-76
2022/09/06 00:56:13;;;;;;;17.00;7.80;;;;;;;15.66;84.51;101159.63;5019022;28;20037;-77
2022/09/06 00:58:39;;;;;;;13.30;7.60;;;;;;;15.50;85.67;101133.34;5021240;28;20088;-75
2022/09/06 01:01:06;;;;;;;10.73;5.57;;;;;;;15.87;85.92;101171.84;5015712;28;20226;-78
2022/09/06 01:03:31;;;;;;;16.60;6.93;;;;;;;16.61;85.40;101325.59;5005669;28;20049;-75
2022/09/06 01:06:21;;;;;;;10.15;5.95;;;;;;;16.58;85.75;101344.19;5015689;28;20045;-74
2022/09/06 01:09:19;;;;;;;8.05;6.38;;;;;;;16.61;85.94;101338.84;5013153;28;20119;-73
2022/09/06 01:12:05;;;;;;;10.40;6.70;;;;;;;16.44;85.89;101336.34;4993002;28;20466;-76
2022/09/06 01:14:40;;;;;;;7.32;5.97;;;;;;;16.42;86.54;101344.31;5000405;28;20029;-79
2022/09/06 01:17:20;;;;;;;9.00;6.18;;;;;;;16.44;87.24;101341.66;4997035;28;20609;-74
2022/09/06 01:19:57;;;;;;;9.02;5.72;;;;;;;16.44;86.69;101339.00;4996941;28;20057;-78
2022/09/06 01:23:14;;;;;;;20.05;7.47;;;;;;;16.37;88.37;101340.84;4998617;28;20552;-74
2022/09/06 01:26:04;;;;;;;10.05;5.93;;;;;;;16.30;89.08;101333.84;4973194;28;20148;-74
2022/09/06 01:28:36;;;;;;;11.10;6.18;;;;;;;16.16;90.63;101336.59;4999365;28;20061;-75
2022/09/06 01:31:17;;;;;;;10.30;6.65;;;;;;;16.18;89.45;101348.06;4996977;28;20057;-74
2022/09/06 01:33:52;;;;;;;9.23;6.55;;;;;;;15.19;90.26;101180.28;4997364;28;20154;-77
2022/09/06 01:36:22;;;;;;;8.95;6.38;;;;;;;15.38;90.41;101202.19;4993963;28;20493;-79
2022/09/06 01:38:49;;;;;;;10.70;6.03;;;;;;;15.08;91.25;101176.84;4999966;28;20061;-76
2022/09/06 01:41:14;;;;;;;7.63;5.85;;;;;;;15.25;91.74;101209.34;5002723;28;20037;-78
2022/09/06 01:43:44;;;;;;;14.68;6.55;;;;;;;15.13;93.72;101168.00;5004996;28;20046;-75
2022/09/06 01:46:32;;;;;;;11.05;6.30;;;;;;;15.93;93.17;101347.34;5013082;28;20473;-74
2022/09/06 01:49:08;;;;;;;9.68;6.07;;;;;;;15.33;93.24;101238.38;5011356;28;20145;-74
2022/09/06 01:51:36;;;;;;;9.05;6.53;;;;;;;15.89;92.90;101331.50;5002861;28;20049;-73
2022/09/06 01:54:32;;;;;;;10.07;7.28;;;;;;;15.04;93.88;101170.69;5000308;28;20158;-77
2022/09/06 01:57:16;;;;;;;10.57;6.68;;;;;;;15.90;94.23;101326.22;5001249;28;20077;-76
2022/09/06 01:59:41;;;;;;;7.90;5.82;;;;;;;15.82;93.90;101333.31;5002375;28;20061;-75
2022/09/06 02:02:25;;;;;;;10.15;6.82;;;;;;;14.91;94.09;101154.03;4999434;28;20045;-73
2022/09/06 02:05:05;;;;;;;9.85;6.10;;;;;;;15.45;94.77;101280.59;4999229;28;20053;-74
2022/09/06 02:07:33;;;;;;;8.00;5.75;;;;;;;15.74;94.82;101316.63;4999751;28;20049;-77
2022/09/06 02:10:23;;;;;;;7.80;6.15;;;;;;;15.66;94.93;101299.88;5011276;28;20191;-75
2022/09/06 02:12:52;;;;;;;9.93;6.78;;;;;;;14.78;94.21;101158.50;5021159;28;20045;-77
2022/09/06 02:15:22;;;;;;;8.43;6.50;;;;;;;14.77;94.04;101163.78;5025618;28;20052;-76
2022/09/06 02:17:55;;;;;;;8.60;5.78;;;;;;;15.63;94.13;101312.22;5026449;28;20637;-77
2022/09/06 02:20:28;;;;;;;14.80;7.00;;;;;;;14.98;94.62;101184.84;5024379;28;20048;-75
2022/09/06 02:22:56;;;;;;;9.63;6.72;;;;;;;14.77;95.74;101169.97;5027610;28;20487;-76
2022/09/06 02:25:26;;;;;;;16.05;7.25;;;;;;;15.61;96.76;101297.25;5021364;28;20191;-75
2022/09/06 02:27:52;;;;;;;10.63;6.85;;;;;;;15.62;95.57;101302.53;5010980;28;20080;-76
2022/09/06 02:30:18;;;;;;;9.05;6.85;;;;;;;15.55;95.75;101278.78;5020743;28;20059;-76
2022/09/06 02:32:54;;;;;;;14.80;8.02;;;;;;;15.55;95.68;101282.31;5031950;28;20049;-76
2022/09/06 02:35:20;;;;;;;7.93;6.72;;;;;;;14.73;96.52;101152.38;5021540;28;20159;-76
2022/09/06 02:37:46;;;;;;;8.88;6.63;;;;;;;15.35;97.93;101278.91;5024993;28;20118;-75
2022/09/06 02:40:13;;;;;;;11.40;6.47;;;;;;;15.65;97.27;101299.00;5023299;28;20922;-76
2022/09/06 02:42:40;;;;;;;9.10;6.72;;;;;;;15.71;97.58;101280.47;5023079;28;20049;-76
2022/09/06 02:45:06;;;;;;;11.82;7.07;;;;;;;15.95;98.12;101290.00;5023362;28;20184;-75
2022/09/06 02:47:32;;;;;;;10.45;6.95;;;;;;;15.86;98.34;101275.97;5023035;28;20052;-74
2022/09/06 02:49:57;;;;;;;8.63;7.28;;;;;;;16.01;97.68;101308.47;5021047;28;20033;-77
2022/09/06 02:52:23;;;;;;;10.65;6.68;;;;;;;15.66;94.87;101282.22;5003308;28;20068;-77
2022/09/06 02:54:48;;;;;;;11.82;7.05;;;;;;;14.86;96.26;101133.81;5021963;28;20049;-77
2022/09/06 02:57:14;;;;;;;8.65;6.47;;;;;;;15.89;97.44;101308.56;5023254;28;20058;-78
2022/09/06 02:59:39;;;;;;;8.45;6.60;;;;;;;15.94;98.18;101313.81;5022045;28;20421;-78
2022/09/06 03:02:05;;;;;;;11.50;7.70;;;;;;;15.42;98.47;101238.31;5024266;28;20298;-78
2022/09/06 03:04:31;;;;;;;13.52;7.47;;;;;;;15.32;97.63;101173.16;5020518;28;20045;-74
2022/09/06 03:06:57;;;;;;;10.10;7.50;;;;;;;16.01;99.13;101321.72;5019846;28;20115;-77
2022/09/06 03:09:23;;;;;;;9.48;6.90;;;;;;;15.97;99.80;101305.88;5033624;28;20741;-78
2022/09/06 03:11:49;;;;;;;15.27;7.78;;;;;;;15.80;99.71;101280.41;5021303;28;20049;-76
2022/09/06 03:14:15;;;;;;;11.35;7.28;;;;;;;15.04;99.72;101189.19;5022487;28;20040;-77
2022/09/06 03:16:41;;;;;;;9.60;7.32;;;;;;;15.35;99.67;101253.31;5020207;28;20493;-75
2022/09/06 03:19:07;;;;;;;13.00;6.80;;;;;;;14.81;99.91;101157.59;5018145;28;20049;-74
2022/09/06 03:21:33;;;;;;;9.05;6.82;;;;;;;15.83;99.39;101303.31;5002856;28;20151;-75
2022/09/06 03:23:59;;;;;;;9.27;6.60;;;;;;;15.72;99.42;101306.03;5018212;28;20060;-79
2022/09/06 03:26:26;;;;;;;9.88;6.78;;;;;;;16.01;98.85;101304.94;5019170;28;20049;-78
2022/09/06 03:28:52;;;;;;;14.25;8.00;;;;;;;15.79;98.64;101306.88;5026098;28;20968;-75
2022/09/06 03:31:17;;;;;;;9.07;7.15;;;;;;;15.47;100.00;101307.91;5026139;28;20049;-75
2022/09/06 03:33:43;;;;;;;9.07;6.65;;;;;;;15.68;99.22;101301.63;5022740;28;20099;-75
2022/09/06 03:36:08;;;;;;;13.43;7.45;;;;;;;14.77;97.56;101155.84;5023412;28;20739;-76
2022/09/06 03:38:34;;;;;;;7.85;6.53;;;;;;;15.76;98.85;101318.38;5018139;28;20270;-75
2022/09/06 03:40:59;;;;;;;16.95;7.70;;;;;;;15.23;97.53;101255.19;5021787;28;20041;-79
2022/09/06 03:43:26;;;;;;;9.80;6.07;;;;;;;14.85;97.78;101206.03;5014710;28;20803;-75
2022/09/06 03:45:58;;;;;;;8.57;5.72;;;;;;;15.56;97.18;101322.88;5009055;28;20045;-76
2022/09/06 03:48:26;;;;;;;10.05;6.60;;;;;;;15.68;97.24;101328.06;5004623;28;20057;-75
2022/09/06 03:50:54;;;;;;;12.95;6.63;;;;;;;15.71;97.72;101333.41;5018005;28;20156;-75
2022/09/06 03:53:20;;;;;;;10.43;7.07;;;;;;;14.70;97.75;101151.50;5017103;28;20052;-75
2022/09/06 03:55:48;;;;;;;10.68;7.05;;;;;;;15.77;97.18;101327.19;5022288;28;20037;-74
2022/09/06 03:58:15;;;;;;;11.07;7.00;;;;;;;15.68;97.66;101298.97;5003835;28;20057;-73
2022/09/06 04:00:41;;;;;;;14.27;7.95;;;;;;;14.85;97.49;101171.69;5022757;28;20059;-74
2022/09/06 04:03:07;;;;;;;8.05;5.72;;;;;;;14.92;97.13;101176.94;4999301;28;21899;-74
2022/09/06 04:05:33;;;;;;;11.98;7.35;;;;;;;14.93;96.79;101175.16;4990518;28;20115;-77
2022/09/06 04:07:58;;;;;;;10.13;7.30;;;;;;;15.78;96.71;101326.28;5017213;28;20485;-78
2022/09/06 04:10:24;;;;;;;10.73;7.93;;;;;;;14.85;96.01;101158.47;5002778;28;20050;-74
2022/09/06 04:12:49;;;;;;;12.93;7.70;;;;;;;15.06;96.20;101191.84;5000669;28;20046;-77
2022/09/06 04:15:15;;;;;;;9.82;8.45;;;;;;;15.69;95.98;101308.69;4998259;28;20064;-76
2022/09/06 04:17:44;;;;;;;11.18;8.68;;;;;;;15.61;97.01;101327.22;5021928;28;20203;-75
2022/09/06 04:20:11;;;;;;;9.95;8.90;;;;;;;15.54;98.63;101324.63;5024361;28;20040;-75
2022/09/06 04:22:37;;;;;;;13.27;9.63;;;;;;;15.02;99.17;101243.81;5004533;28;20122;-74
2022/09/06 04:25:03;;;;;;;11.07;7.82;;;;;;;15.83;98.86;101350.97;5001490;28;20045;-77
2022/09/06 04:27:29;;;;;;;11.05;8.27;;;;;;;16.01;97.23;101350.84;5013747;28;20603;-77
2022/09/06 04:29:55;;;;;;;14.98;8.43;;;;;;;16.13;95.71;101343.66;5020758;28;20045;-77
2022/09/06 04:32:21;;;;;;;13.00;8.60;;;;;;;15.14;95.99;101179.44;5022603;28;20437;-75
2022/09/06 04:34:47;;;;;;;9.50;6.55;;;;;;;15.32;94.50;101218.09;4999502;28;20675;-77
2022/09/06 04:37:16;;;;;;;9.23;7.38;;;;;;;15.23;94.33;101184.66;5014844;28;20119;-76
2022/09/06 04:39:43;;;;;;;9.48;8.43;;;;;;;15.11;94.74;101220.00;5020481;28;20052;-78
2022/09/06 04:42:08;;;;;;;12.57;6.88;;;;;;;15.79;92.67;101336.84;5021929;28;20092;-79
2022/09/06 04:44:34;;;;;;;15.90;7.90;;;;;;;15.77;92.99;101301.59;5012260;28;21060;-73
2022/09/06 04:47:13;;;;;;;8.40;7.60;;;;;;;15.33;94.24;101227.78;5019256;28;20043;-72
2022/09/06 04:49:40;;;;;;;9.77;7.35;;;;;;;15.73;93.96;101328.06;5020497;28;20057;-77
2022/09/06 04:52:12;;;;;;;9.13;7.18;;;;;;;15.82;94.57;101335.97;5034155;28;20053;-76
2022/09/06 04:54:38;;;;;;;16.17;8.20;;;;;;;15.72;94.48;101337.78;5016614;28;20433;-73
2022/09/06 04:57:03;;;;;;;17.23;8.18;;;;;;;15.17;95.18;101219.06;5009663;28;20467;-75
2022/09/06 04:59:29;;;;;;;15.27;6.63;;;;;;;15.93;95.36;101333.25;5019526;28;20056;-74
2022/09/06 05:01:54;;;;;;;14.50;7.95;;;;;;;14.93;94.13;101199.81;5003769;28;20032;-81
2022/09/06 05:04:20;;;;;;;11.90;8.15;;;;;;;15.48;94.54;101301.75;5020885;28;20544;-74
2022/09/06 05:06:46;;;;;;;7.95;6.63;;;;;;;15.74;93.85;101332.50;5018829;28;20050;-75
2022/09/06 05:09:11;;;;;;;13.15;7.50;;;;;;;15.17;94.16;101216.41;5010784;28;20433;-74
2022/09/06 05:11:37;;;;;;;9.40;7.43;;;;;;;15.03;94.87;101205.97;4998080;28;20049;-73
2022/09/06 05:14:02;;;;;;;12.10;8.45;;;;;;;14.89;95.79;101195.44;5016111;28;20041;-75
2022/09/06 05:16:28;;;;;;;13.55;6.85;;;;;;;15.81;95.77;101340.38;5016361;28;20195;-76
2022/09/06 05:18:53;;;;;;;9.00;6.93;;;;;;;14.88;94.96;101169.03;5003500;28;20510;-77
2022/09/06 05:21:19;;;;;;;12.15;8.98;;;;;;;15.04;95.45;101160.13;5012994;28;20059;-77
2022/09/06 05:23:45;;;;;;;15.02;8.60;;;;;;;16.29;95.36;101341.78;4998102;28;20056;-75
2022/09/06 05:26:10;;;;;;;19.88;9.43;;;;;;;15.47;95.14;101230.34;4994922;28;20033;-73
2022/09/06 05:28:36;;;;;;;12.02;8.95;;;;;;;16.25;94.72;101347.13;5018382;28;20103;-75
2022/09/06 05:31:09;;;;;;;12.70;8.13;;;;;;;15.28;95.45;101180.22;5019334;28;20124;-76
2022/09/06 05:33:35;;;;;;;11.18;8.05;;;;;;;16.27;93.45;101339.13;5032714;28;20045;-75
2022/09/06 05:36:02;;;;;;;9.48;7.20;;;;;;;16.49;92.58;101337.19;5028676;28;20084;-73
2022/09/06 05:38:28;;;;;;;9.55;8.50;;;;;;;15.68;95.50;101201.06;5017913;28;20523;-73
2022/09/06 05:40:53;;;;;;;13.82;9.45;;;;;;;16.10;95.70;101253.69;5015332;28;20037;-74
2022/09/06 05:43:19;;;;;;;10.63;7.50;;;;;;;15.94;93.97;101221.16;5012172;28;20765;-76
2022/09/06 05:45:44;;;;;;;9.65;6.78;;;;;;;15.88;91.70;101231.84;5015023;28;20049;-74
2022/09/06 05:48:10;;;;;;;12.60;7.70;;;;;;;16.64;90.73;101352.91;5016553;28;20213;-78
2022/09/06 05:50:35;;;;;;;9.10;7.47;;;;;;;16.71;88.82;101334.31;5015937;28;20111;-75
2022/09/06 05:53:01;;;;;;;11.48;8.10;;;;;;;16.74;90.16;101342.22;5023039;28;20751;-74
2022/09/06 05:55:26;;;;;;;11.00;6.65;;;;;;;16.17;90.32;101253.59;5002559;28;20041;-74
2022/09/06 05:57:52;;;;;;;19.50;8.52;;;;;;;16.70;92.02;101346.69;5016532;28;20381;-76
2022/09/06 06:00:18;;;;;;;10.07;7.25;;;;;;;16.78;92.57;101359.84;4997249;28;20048;-78
2022/09/06 06:02:47;;;;;;;16.83;9.02;;;;;;;16.56;92.40;101327.41;5018136;28;20176;-74
2022/09/06 06:05:13;;;;;;;9.65;7.47;;;;;;;16.62;90.46;101349.44;5023819;28;20037;-75
2022/09/06 06:07:38;;;;;;;13.95;7.57;;;;;;;15.90;89.97;101191.22;5013890;28;20072;-75
2022/09/06 06:10:04;;;;;;;13.40;8.60;;;;;;;16.67;91.65;101315.81;5004519;28;20070;-74
2022/09/06 06:12:30;;;;;;;11.25;9.02;;;;;;;16.93;92.80;101341.19;4994973;28;21884;-73
2022/09/06 06:14:55;;;;;;;18.65;9.70;;;;;;;17.02;92.34;101346.38;4995743;28;20054;-74
2022/09/06 06:17:21;;;;;;;13.48;8.40;;;;;;;16.24;91.06;101182.91;4996147;28;20037;-73
2022/09/06 06:19:46;;;;;;;9.50;8.27;;;;;;;17.04;89.67;101314.53;4996460;28;20140;-73
2022/09/06 06:22:12;;;;;;;10.23;7.28;;;;;;;16.22;88.57;101160.88;4999093;28;20057;-73
2022/09/06 06:24:38;;;;;;;11.00;8.00;;;;;;;17.22;91.38;101334.66;4981105;28;21176;-73
2022/09/06 06:27:04;;;;;;;21.58;9.20;;;;;;;16.34;89.25;101178.41;5005011;28;20060;-73
2022/09/06 06:29:30;;;;;;;21.30;9.55;;;;;;;17.18;88.28;101331.13;5003356;28;20029;-73
2022/09/06 06:31:55;;;;;;;19.92;9.35;;;;;;;17.23;88.02;101350.56;4987174;28;20040;-73
2022/09/06 06:34:21;;;;;;;9.38;6.82;;;;;;;16.60;87.58;101209.88;5001032;28;20057;-74
2022/09/06 06:36:47;;;;;;;12.38;7.30;;;;;;;16.73;88.99;101192.06;5001046;28;20049;-72
2022/09/06 06:39:12;;;;;;;18.92;6.97;;;;;;;17.52;84.35;101326.28;4998814;28;20521;-73
2022/09/06 06:41:38;;;;;;;12.68;7.00;;;;;;;16.91;82.31;101228.97;5000298;28;20401;-72
2022/09/06 06:44:04;;;;;;;8.68;5.85;;;;;;;17.63;82.02;101357.09;4999995;28;20119;-76
2022/09/06 06:46:32;;;;;;;13.57;6.47;;;;;;;17.70;82.36;101354.34;4980979;28;21080;-76
2022/09/06 06:48:57;;;;;;;8.85;6.60;;;;;;;16.74;82.66;101212.34;4998962;28;20049;-77
2022/09/06 06:51:28;;;;;;;18.38;11.43;;;;;;;17.38;87.57;101362.72;5001821;28;20802;-72
2022/09/06 06:53:55;;;;;;;15.68;9.73;;;;;;;17.50;88.56;101359.91;5003447;28;20053;-72
2022/09/06 06:56:28;;;;;;;24.48;9.63;;;;;;;17.54;88.98;101365.19;4984732;28;20041;-72
2022/09/06 06:58:56;;;;;;;12.07;8.07;;;;;;;17.47;85.28;101364.41;4999927;28;20485;-71
2022/09/06 07:01:23;;;;;;;17.98;7.47;;;;;;;17.29;81.51;101331.03;4997699;28;20638;-73
2022/09/06 07:03:49;;;;;;;9.00;6.78;;;;;;;17.47;81.93;101359.09;5000278;28;20144;-69
2022/09/06 07:06:16;;;;;;;11.45;6.28;;;;;;;17.47;78.73;101375.88;4999646;28;20041;-70
2022/09/06 07:08:42;;;;;;;7.93;5.55;;;;;;;18.03;82.51;101368.06;5001203;28;20124;-72
2022/09/06 07:11:10;;;;;;;15.65;8.18;;;;;;;17.64;82.01;101322.56;5016827;28;20144;-71
2022/09/06 07:13:36;;;;;;;10.43;8.05;;;;;;;17.65;83.06;101339.38;5018527;28;20084;-70
2022/09/06 07:16:34;;;;;;;22.35;9.95;;;;;;;17.80;85.06;101372.78;5018445;28;20261;-71
2022/09/06 07:18:59;;;;;;;13.80;7.63;;;;;;;17.60;81.24;101240.34;4976366;28;20122;-71
2022/09/06 07:21:25;;;;;;;9.90;7.47;;;;;;;18.10;82.70;101361.75;5019328;28;20429;-73
2022/09/06 07:23:52;;;;;;;17.33;8.00;;;;;;;18.21;78.33;101350.91;5019692;28;20048;-74
2022/09/06 07:26:21;;;;;;;13.07;8.35;;;;;;;18.03;79.17;101308.75;5020856;28;20033;-72
2022/09/06 07:28:47;;;;;;;11.35;6.95;;;;;;;18.19;80.09;101362.47;5019274;28;20037;-74
2022/09/06 07:31:13;;;;;;;11.68;7.28;;;;;;;18.29;79.14;101364.09;5022293;28;20068;-72
2022/09/06 07:33:39;;;;;;;13.35;6.80;;;;;;;18.28;78.69;101343.72;5020067;28;20102;-73
2022/09/06 07:36:06;;;;;;;10.73;7.20;;;;;;;18.67;81.20;101375.84;5018067;28;20539;-73
2022/09/06 07:38:33;;;;;;;12.52;7.38;;;;;;;18.68;79.89;101378.47;5016017;28;20059;-70
2022/09/06 07:41:04;;;;;;;12.90;7.22;;;;;;;17.60;79.65;101222.66;5018293;28;20088;-73
2022/09/06 07:43:30;;;;;;;9.60;5.35;;;;;;;17.53;76.63;101260.81;5020835;28;21585;-71
2022/09/06 07:46:11;;;;;;;9.85;5.43;;;;;;;17.78;74.12;101266.59;5016403;28;20049;-72
2022/09/06 07:48:38;;;;;;;7.93;6.03;;;;;;;17.92;72.73;101271.72;5018079;28;20147;-73
2022/09/06 07:51:19;;;;;;;8.35;5.97;;;;;;;18.52;72.36;101393.81;5017837;28;20040;-73
2022/09/06 07:53:49;;;;;;;19.20;5.95;;;;;;;17.96;71.10;101240.69;5018207;28;20555;-74
2022/09/06 07:56:16;;;;;;;9.02;5.07;;;;;;;18.68;70.36;101413.03;5023486;28;20029;-72
2022/09/06 07:58:41;;;;;;;8.32;5.93;;;;;;;18.92;73.60;101394.91;5015922;28;20076;-71
2022/09/06 08:01:33;;;;;;;10.77;6.18;;;;;;;18.70;72.94;101405.03;5017759;28;20144;-73
2022/09/06 08:04:09;;;;;;;19.40;6.00;;;;;;;17.98;71.64;101230.91;5023279;28;20045;-73
2022/09/06 08:06:40;;;;;;;8.00;5.18;;;;;;;19.00;70.30;101373.47;5025783;28;20080;-72
2022/09/06 08:09:08;;;;;;;9.73;5.72;;;;;;;18.49;68.90;101226.41;4999603;28;20528;-72
2022/09/06 08:11:35;;;;;;;12.15;5.15;;;;;;;18.68;67.44;101248.22;4998871;28;20037;-70
2022/09/06 08:14:02;;;;;;;7.50;4.60;;;;;;;18.92;67.80;101389.59;5003132;28;20190;-72
2022/09/06 08:16:29;;;;;;;9.88;5.53;;;;;;;18.20;66.95;101250.00;5008741;28;20068;-73
2022/09/06 08:19:00;;;;;;;7.05;4.65;;;;;;;19.21;67.32;101364.19;5007701;28;20064;-71
2022/09/06 08:21:31;;;;;;;9.23;4.38;;;;;;;19.18;66.82;101362.47;5003766;28;20786;-73
2022/09/06 08:24:02;;;;;;;7.93;4.28;;;;;;;19.52;64.54;101365.28;5006679;28;20050;-74
2022/09/06 08:26:30;;;;;;;9.27;5.18;;;;;;;19.49;67.64;101365.38;5007230;28;20116;-72
2022/09/06 08:28:58;;;;;;;9.00;5.30;;;;;;;18.84;64.43;101245.25;4991584;28;21472;-73
2022/09/06 08:31:25;;;;;;;8.23;5.68;;;;;;;19.51;67.03;101376.84;5010638;28;20054;-74
2022/09/06 08:33:52;;;;;;;6.72;5.00;;;;;;;19.03;64.02;101248.38;4993922;28;20056;-74
2022/09/06 08:36:17;;;;;;;6.05;4.70;;;;;;;20.08;65.57;101372.94;4994121;28;20447;-74
2022/09/06 08:38:44;;;;;;;10.35;5.25;;;;;;;20.08;64.46;101346.28;5009575;28;20042;-73
2022/09/06 08:41:12;;;;;;;8.98;5.07;;;;;;;20.38;62.39;101387.28;4989682;28;20046;-73
2022/09/06 08:43:45;;;;;;;7.63;5.25;;;;;;;19.61;60.43;101231.09;4991804;28;22309;-71
2022/09/06 08:46:11;;;;;;;7.80;5.82;;;;;;;19.40;62.49;101228.03;4987452;28;20060;-71
2022/09/06 08:48:38;;;;;;;11.60;5.82;;;;;;;20.49;63.19;101370.16;4999864;28;20057;-70
2022/09/06 08:51:13;;;;;;;10.88;5.65;;;;;;;20.65;63.89;101372.41;5006747;28;20057;-71
2022/09/06 08:53:47;;;;;;;8.35;5.10;;;;;;;19.21;61.27;101228.50;5001787;28;20046;-70
2022/09/06 08:56:24;;;;;;;13.85;7.20;;;;;;;19.74;63.77;101253.88;5016115;28;20045;-71
2022/09/06 08:59:06;;;;;;;12.85;5.07;;;;;;;20.54;64.51;101345.13;5011445;28;20473;-70
2022/09/06 09:01:59;;;;;;;7.18;5.40;;;;;;;20.66;63.07;101341.28;5010345;28;20046;-70
2022/09/06 09:04:28;;;;;;;13.32;5.78;;;;;;;20.62;63.77;101336.94;4973352;28;20105;-72
2022/09/06 09:06:59;;;;;;;10.02;5.40;;;;;;;20.79;63.03;101318.69;5000594;28;20113;-70
2022/09/06 09:09:45;;;;;;;11.35;7.40;;;;;;;20.65;61.30;101331.53;4992635;28;20057;-70
2022/09/06 09:12:16;;;;;;;11.48;5.47;;;;;;;21.03;57.86;101316.25;4997509;28;20102;-69
2022/09/06 09:14:47;;;;;;;6.93;5.05;;;;;;;21.04;57.85;101334.00;4978180;28;20045;-73
2022/09/06 09:17:21;;;;;;;9.60;5.63;;;;;;;20.85;58.65;101307.84;4998090;28;20041;-72
2022/09/06 09:19:47;;;;;;;13.50;5.50;;;;;;;20.52;57.29;101191.44;4989027;28;20049;-72
2022/09/06 09:22:18;;;;;;;12.45;5.10;;;;;;;19.98;54.95;101168.94;4991962;28;20499;-73
2022/09/06 09:24:47;;;;;;;8.68;6.18;;;;;;;20.56;57.44;101303.31;4999141;28;20051;-73
2022/09/06 09:27:18;;;;;;;9.50;6.63;;;;;;;20.87;57.97;101268.66;4997913;28;20053;-72
2022/09/06 09:29:53;;;;;;;11.30;5.18;;;;;;;20.53;59.17;101322.03;5000036;28;20171;-73
2022/09/06 09:32:39;;;;;;;11.55;4.93;;;;;;;19.65;59.91;101152.88;4993897;28;20048;-73
2022/09/06 09:35:23;;;;;;;11.35;6.43;;;;;;;20.76;56.10;101323.22;4995007;28;20067;-74
2022/09/06 09:38:11;;;;;;;13.07;7.10;;;;;;;20.91;55.48;101290.81;4991006;28;20201;-74
2022/09/06 09:40:47;;;;;;;9.68;6.85;;;;;;;20.71;56.70;101262.00;5003478;28;20049;-73
2022/09/06 09:43:41;;;;;;;9.85;6.03;;;;;;;21.05;54.64;101303.75;4974382;28;21091;-73
2022/09/06 09:46:06;;;;;;;;;;;;;;;20.18;55.91;101201.25;4989585;28;21113;-74
2022/09/06 09:48:32;;;;;;;10.10;5.68;;;;;;;20.20;55.43;101167.41;5011664;28;19926;-73
2022/09/06 09:51:17;;;;;;;13.77;6.97;;;;;;;20.68;55.83;101270.09;4997126;28;20880;-73
2022/09/06 09:53:54;;;;;;;10.90;4.75;;;;;;;20.19;54.06;101167.47;4981632;28;20053;-72
2022/09/06 09:56:46;;;;;;;8.43;5.25;;;;;;;21.17;54.56;101292.69;5007271;28;20037;-73
2022/09/06 09:59:19;;;;;;;13.15;5.72;;;;;;;20.89;53.70;101291.75;4993337;28;20045;-73
2022/09/06 10:01:45;;;;;;;10.68;5.40;;;;;;;21.03;53.11;101286.91;4999840;28;20064;-75
2022/09/06 10:04:18;;;;;;;8.75;4.63;;;;;;;21.21;55.56;101274.78;5004472;28;20053;-73
2022/09/06 10:06:43;;;;;;;14.23;6.88;;;;;;;21.22;54.88;101220.47;5003698;28;20140;-73
2022/09/06 10:09:20;;;;;;;14.25;5.50;;;;;;;21.42;52.36;101276.84;4994453;28;20076;-75
2022/09/06 10:11:55;;;;;;;8.05;5.28;;;;;;;21.61;52.24;101233.50;5000690;28;20084;-74
2022/09/06 10:14:31;;;;;;;8.00;4.55;;;;;;;21.22;51.48;101165.28;5003990;28;20132;-74
2022/09/06 10:16:58;;;;;;;7.72;5.25;;;;;;;21.84;51.47;101230.06;5009976;28;20068;-73
2022/09/06 10:19:45;;;;;;;12.80;5.28;;;;;;;22.40;51.59;101274.50;4988690;28;20088;-74
2022/09/06 10:22:27;;;;;;;8.57;5.20;;;;;;;22.18;51.48;101267.22;4978621;28;20053;-73
2022/09/06 10:25:25;;;;;;;8.13;5.17;;;;;;;22.29;49.48;101216.94;5017004;28;22494;-74
2022/09/06 10:28:19;;;;;;;8.10;5.45;;;;;;;22.60;50.83;101265.78;5015665;28;20053;-75
2022/09/06 10:31:09;;;;;;;10.05;5.57;;;;;;;22.92;50.51;101260.13;4999562;28;20064;-74
2022/09/06 10:33:52;;;;;;;8.07;5.93;;;;;;;22.74;49.39;101256.31;4994456;28;20747;-75
2022/09/06 10:36:27;;;;;;;11.82;6.68;;;;;;;21.98;49.82;101157.44;5000411;28;20092;-74
2022/09/06 10:39:02;;;;;;;9.55;5.65;;;;;;;22.63;50.65;101217.50;5002598;28;20053;-72
2022/09/06 10:41:56;;;;;;;14.43;5.57;;;;;;;23.34;48.19;101227.28;4999088;28;20160;-75
2022/09/06 10:44:50;;;;;;;13.10;6.40;;;;;;;23.45;48.24;101226.81;5003753;28;20164;-75
2022/09/06 10:47:17;;;;;;;9.10;5.35;;;;;;;23.29;46.95;101234.59;5001244;28;20052;-75
2022/09/06 10:49:53;;;;;;;9.85;5.03;;;;;;;23.81;47.03;101242.34;5001905;28;20029;-74
2022/09/06 10:52:26;;;;;;;13.00;5.53;;;;;;;23.76;46.98;101245.25;4986302;28;20068;-73
2022/09/06 10:54:54;;;;;;;;;;;;;;;23.10;47.33;101237.13;4986763;28;20947;-76
2022/09/06 10:57:45;;;;;;;9.02;5.55;;;;;;;23.11;49.15;101251.41;4998845;28;20415;-75
2022/09/06 11:00:13;;;;;;;9.18;6.50;;;;;;;23.22;48.45;101210.81;5000301;28;20100;-73
2022/09/06 11:03:05;;;;;;;8.73;6.05;;;;;;;23.09;48.66;101243.44;5005995;28;20497;-75
2022/09/06 11:05:36;;;;;;;9.80;6.53;;;;;;;22.18;50.03;101111.28;5014020;28;20052;-75
2022/09/06 11:08:08;;;;;;;16.30;6.88;;;;;;;22.76;47.20;101142.06;5015211;28;20037;-76
2022/09/06 11:10:37;;;;;;;8.48;5.47;;;;;;;23.51;48.72;101206.97;5024771;28;20136;-77
2022/09/06 11:13:09;;;;;;;7.75;5.78;;;;;;;23.48;49.01;101207.94;5034395;28;20085;-74
2022/09/06 11:16:04;;;;;;;10.70;7.00;;;;;;;23.48;46.11;101240.09;5015410;28;20143;-75
2022/09/06 11:18:45;;;;;;;10.23;5.47;;;;;;;23.74;47.56;101233.72;5026035;28;20061;-75
2022/09/06 11:21:23;;;;;;;9.07;6.63;;;;;;;23.21;46.28;101153.72;5035367;28;20045;-76
2022/09/06 11:24:11;;;;;;;8.70;5.68;;;;;;;23.64;46.73;101226.94;5034808;28;20045;-75
2022/09/06 11:27:05;;;;;;;10.07;6.22;;;;;;;22.63;48.67;101108.69;5034167;28;20048;-72
2022/09/06 11:29:33;;;;;;;13.63;6.47;;;;;;;22.42;48.75;101093.47;5007577;28;20152;-72
2022/09/06 11:32:01;;;;;;;11.80;6.60;;;;;;;22.85;48.02;101226.47;5016941;28;20064;-75
2022/09/06 11:34:31;;;;;;;11.27;5.85;;;;;;;23.52;47.37;101217.59;5034525;28;20061;-75
2022/09/06 11:36:58;;;;;;;12.52;6.63;;;;;;;23.62;48.14;101177.03;5013035;28;20146;-75